You are not logged in, Click here to log in
仰光國際機場RGN / VYYY 緬甸仰光
ICAO: VYYY Country: 緬甸仰光
Latitude: 16.9073 Longitude: 96.1332
Total Arrivals: 9 Total Departures: 14
Latest Arrival: FS69 (VDPP-VYYY)CHU. CHUHAO Latest Departure: MU2032 (VYYY-ZPPP)CHU. CHUHAO
Scenery:
METAR : VYYY 131000Z 10005KT 7000 NSC 29/18 Q1013 NOSIG

仰光國際機場RGN

You are accessing this site from IP address 100.26.176.182. Virtual Airline. CMS by phpVMS.Website designed by Zumeweb and edited by Theo Bearman.
There is 0 User(s) Online: | and 10 Guest(s) Online.
All information on this site is for fight simulation purposes only. This site is for flight logging for pilots of Virtual Airline&模擬飛行論壇 FlySim only.